Time;durP1;ratioP1;P1;durP2;ratioP2;P2;SDS_P1;SDS_P2;PMS_P1;PMS_P2;Temp;Humidity;BMP_temperature;BMP_pressure;BME280_temperature;BME280_humidity;BME280_pressure;Samples;Min_cycle;Max_cycle;Signal;HPM_P1;HPM_P2
2022/07/18 00:02:02;;;;;;;9.00;3.65;;;;;;;;;;5112534;27;20406;-56
2022/07/18 00:04:28;;;;;;;5.82;4.03;;;;;;;;;;5116601;27;20429;-57
2022/07/18 00:06:53;;;;;;;7.32;5.45;;;;;;;;;;5115406;27;20508;-58
2022/07/18 00:09:20;;;;;;;7.00;5.10;;;;;;;;;;5116579;27;20043;-57
2022/07/18 00:11:46;;;;;;;4.65;4.25;;;;;;;;;;5112347;27;20047;-57
2022/07/18 00:14:11;;;;;;;4.38;3.92;;;;;;;;;;5114752;27;20084;-57
2022/07/18 00:16:37;;;;;;;4.68;4.20;;;;;;;;;;5115020;27;20042;-57
2022/07/18 00:19:03;;;;;;;5.18;4.38;;;;;;;;;;5098138;28;20108;-55
2022/07/18 00:21:29;;;;;;;5.38;4.80;;;;;;;;;;5118184;27;20469;-57
2022/07/18 00:23:54;;;;;;;10.18;5.10;;;;;;;;;;5117326;27;20062;-56
2022/07/18 00:26:19;;;;;;;5.63;5.07;;;;;;;;;;5117644;27;20476;-56
2022/07/18 00:28:45;;;;;;;5.78;4.97;;;;;;;;;;5118572;27;20066;-57
2022/07/18 00:31:10;;;;;;;4.20;3.80;;;;;;;;;;5114942;27;20038;-57
2022/07/18 00:33:35;;;;;;;4.82;3.88;;;;;;;;;;5117216;27;20055;-56
2022/07/18 00:36:01;;;;;;;6.68;5.43;;;;;;;;;;5113023;27;20047;-55
2022/07/18 00:38:26;;;;;;;6.70;5.75;;;;;;;;;;5115063;27;20059;-55
2022/07/18 00:40:51;;;;;;;3.80;3.45;;;;;;;;;;5114451;27;20068;-57
2022/07/18 00:43:17;;;;;;;7.13;6.07;;;;;;;;;;5113290;27;20130;-57
2022/07/18 00:45:46;;;;;;;5.53;4.97;;;;;;;;;;5115823;27;20101;-57
2022/07/18 00:48:11;;;;;;;7.00;4.50;;;;;;;;;;5113147;27;20043;-56
2022/07/18 00:50:37;;;;;;;5.13;4.07;;;;;;;;;;5120566;27;20092;-57
2022/07/18 00:53:02;;;;;;;11.57;5.10;;;;;;;;;;5116909;27;20529;-57
2022/07/18 00:55:28;;;;;;;4.93;3.78;;;;;;;;;;5116832;27;20054;-57
2022/07/18 00:57:55;;;;;;;5.93;5.13;;;;;;;;;;5112920;27;20135;-58
2022/07/18 01:03:04;;;;;;;4.68;3.90;;;;;;;;;;5108128;28;20549;-57
2022/07/18 01:05:30;;;;;;;5.00;3.85;;;;;;;;;;5110504;28;20071;-57
2022/07/18 01:07:55;;;;;;;3.58;3.08;;;;;;;;;;5116622;27;20046;-57
2022/07/18 01:10:20;;;;;;;8.45;5.35;;;;;;;;;;5114887;27;20483;-57
2022/07/18 01:12:46;;;;;;;9.93;6.20;;;;;;;;;;5114828;27;20091;-55
2022/07/18 01:15:11;;;;;;;9.25;4.68;;;;;;;;;;5108404;27;20036;-56
2022/07/18 01:17:37;;;;;;;6.95;5.75;;;;;;;;;;5111564;28;20039;-57
2022/07/18 01:20:03;;;;;;;5.15;4.18;;;;;;;;;;5120483;27;20051;-57
2022/07/18 01:22:28;;;;;;;6.60;4.80;;;;;;;;;;5110671;27;20055;-56
2022/07/18 01:24:54;;;;;;;6.25;5.03;;;;;;;;;;5111140;27;20043;-56
2022/07/18 01:27:20;;;;;;;8.18;7.22;;;;;;;;;;5115002;28;20051;-57
2022/07/18 01:29:46;;;;;;;6.38;5.78;;;;;;;;;;5114016;27;20054;-57
2022/07/18 01:32:12;;;;;;;5.75;5.00;;;;;;;;;;5115250;27;20115;-56
2022/07/18 01:34:37;;;;;;;4.95;4.45;;;;;;;;;;5111674;27;20570;-56
2022/07/18 01:37:03;;;;;;;5.57;5.07;;;;;;;;;;5115465;27;20490;-56
2022/07/18 01:39:28;;;;;;;5.32;4.65;;;;;;;;;;5110167;28;20045;-56
2022/07/18 01:41:55;;;;;;;5.30;4.45;;;;;;;;;;5114482;27;20082;-56
2022/07/18 01:44:20;;;;;;;13.27;6.00;;;;;;;;;;5113785;27;20044;-57
2022/07/18 01:46:45;;;;;;;6.10;4.65;;;;;;;;;;5110409;28;20437;-56
2022/07/18 01:49:11;;;;;;;5.97;5.28;;;;;;;;;;5113785;27;20039;-56
2022/07/18 01:51:36;;;;;;;5.15;4.43;;;;;;;;;;5114945;27;20046;-57
2022/07/18 01:54:01;;;;;;;5.25;4.13;;;;;;;;;;5111520;28;20043;-57
2022/07/18 01:56:27;;;;;;;9.82;5.47;;;;;;;;;;5114561;28;20052;-57
2022/07/18 01:58:52;;;;;;;6.00;5.38;;;;;;;;;;5111668;27;20031;-57
2022/07/18 02:01:17;;;;;;;5.80;5.30;;;;;;;;;;5108675;27;20678;-57
2022/07/18 02:03:43;;;;;;;5.18;4.47;;;;;;;;;;5112211;27;20062;-56
2022/07/18 02:06:08;;;;;;;4.45;4.05;;;;;;;;;;5116226;27;20092;-57
2022/07/18 02:08:33;;;;;;;11.02;5.95;;;;;;;;;;5107600;27;20150;-57
2022/07/18 02:10:59;;;;;;;9.90;4.68;;;;;;;;;;5111458;27;20055;-57
2022/07/18 02:13:24;;;;;;;5.95;4.22;;;;;;;;;;5114384;27;20127;-56
2022/07/18 02:15:49;;;;;;;13.02;4.72;;;;;;;;;;5114479;28;20470;-54
2022/07/18 02:18:15;;;;;;;6.28;5.68;;;;;;;;;;5115871;27;20081;-56
2022/07/18 02:20:40;;;;;;;5.03;4.63;;;;;;;;;;5110656;27;20570;-56
2022/07/18 02:23:07;;;;;;;6.10;5.40;;;;;;;;;;5111630;27;20082;-57
2022/07/18 02:25:33;;;;;;;13.23;5.57;;;;;;;;;;5117157;27;20074;-57
2022/07/18 02:27:58;;;;;;;7.32;5.82;;;;;;;;;;5114969;28;20070;-56
2022/07/18 02:30:24;;;;;;;6.38;4.30;;;;;;;;;;5111190;27;20122;-56
2022/07/18 02:32:49;;;;;;;6.35;5.82;;;;;;;;;;5112004;27;20070;-56
2022/07/18 02:35:14;;;;;;;6.45;5.43;;;;;;;;;;5110647;27;20096;-57
2022/07/18 02:37:41;;;;;;;7.22;5.38;;;;;;;;;;5112444;27;20522;-57
2022/07/18 02:40:08;;;;;;;6.88;6.05;;;;;;;;;;5112493;27;20043;-57
2022/07/18 02:42:33;;;;;;;5.50;5.00;;;;;;;;;;5112099;27;20663;-56
2022/07/18 02:44:58;;;;;;;6.20;4.65;;;;;;;;;;5114248;27;20084;-57
2022/07/18 02:47:23;;;;;;;8.95;5.72;;;;;;;;;;5112638;27;20035;-56
2022/07/18 02:49:49;;;;;;;6.55;5.85;;;;;;;;;;5112019;27;20091;-58
2022/07/18 02:52:14;;;;;;;8.88;5.13;;;;;;;;;;5113105;27;20068;-57
2022/07/18 02:54:39;;;;;;;8.27;5.70;;;;;;;;;;5116059;28;20043;-57
2022/07/18 02:57:05;;;;;;;6.13;5.50;;;;;;;;;;5116599;27;20046;-56
2022/07/18 02:59:31;;;;;;;5.25;4.75;;;;;;;;;;5117501;27;20529;-57
2022/07/18 03:01:56;;;;;;;6.63;5.82;;;;;;;;;;5115865;27;20153;-57
2022/07/18 03:04:22;;;;;;;8.95;5.65;;;;;;;;;;5121186;27;20061;-56
2022/07/18 03:06:47;;;;;;;7.03;5.82;;;;;;;;;;5115701;27;20052;-57
2022/07/18 03:09:13;;;;;;;5.88;5.38;;;;;;;;;;5116639;27;20040;-56
2022/07/18 03:11:38;;;;;;;6.30;5.70;;;;;;;;;;5117994;27;20050;-57
2022/07/18 03:14:04;;;;;;;6.13;5.53;;;;;;;;;;5114435;28;20039;-57
2022/07/18 03:16:29;;;;;;;7.25;5.95;;;;;;;;;;5114377;27;20043;-56
2022/07/18 03:18:54;;;;;;;7.18;5.10;;;;;;;;;;5109066;27;20499;-56
2022/07/18 03:21:20;;;;;;;6.60;5.68;;;;;;;;;;5115142;27;20056;-57
2022/07/18 03:23:45;;;;;;;5.53;5.03;;;;;;;;;;5114067;27;20044;-57
2022/07/18 03:26:10;;;;;;;7.60;5.22;;;;;;;;;;5116074;27;20058;-56
2022/07/18 03:28:36;;;;;;;13.65;6.55;;;;;;;;;;5114997;27;20050;-56
2022/07/18 03:31:01;;;;;;;6.03;5.40;;;;;;;;;;5119700;27;20035;-57
2022/07/18 03:33:26;;;;;;;6.13;4.70;;;;;;;;;;5116288;27;20074;-56
2022/07/18 03:35:52;;;;;;;6.28;5.65;;;;;;;;;;5117346;27;20039;-56
2022/07/18 03:38:18;;;;;;;12.27;5.43;;;;;;;;;;5115247;27;20046;-57
2022/07/18 03:40:43;;;;;;;6.60;6.00;;;;;;;;;;5114717;27;20518;-56
2022/07/18 03:43:08;;;;;;;5.85;5.20;;;;;;;;;;5115735;27;20142;-57
2022/07/18 03:45:33;;;;;;;6.43;5.75;;;;;;;;;;5114252;27;20150;-56
2022/07/18 03:47:59;;;;;;;15.18;6.10;;;;;;;;;;5112642;27;20039;-57
2022/07/18 03:50:24;;;;;;;7.53;6.80;;;;;;;;;;5114755;28;20044;-57
2022/07/18 03:52:50;;;;;;;6.80;4.88;;;;;;;;;;5115874;27;20055;-56
2022/07/18 03:55:15;;;;;;;5.13;4.63;;;;;;;;;;5112322;27;20097;-57
2022/07/18 03:57:41;;;;;;;5.72;5.15;;;;;;;;;;5112956;27;20055;-55
2022/07/18 04:00:10;;;;;;;7.15;5.97;;;;;;;;;;5117835;27;20046;-57
2022/07/18 04:02:42;;;;;;;8.10;5.45;;;;;;;;;;5118937;27;20046;-57
2022/07/18 04:05:07;;;;;;;6.68;5.35;;;;;;;;;;5117067;27;20070;-56
2022/07/18 04:07:33;;;;;;;7.05;6.45;;;;;;;;;;5114118;27;20040;-57
2022/07/18 04:09:58;;;;;;;6.85;5.13;;;;;;;;;;5115712;27;20047;-57
2022/07/18 04:12:24;;;;;;;5.07;4.55;;;;;;;;;;5116692;27;20060;-57
2022/07/18 04:14:49;;;;;;;5.45;4.95;;;;;;;;;;5122153;27;20201;-56
2022/07/18 04:17:14;;;;;;;6.53;5.55;;;;;;;;;;5118682;27;20047;-57
2022/07/18 04:19:40;;;;;;;10.00;7.32;;;;;;;;;;5115740;27;20039;-57
2022/07/18 04:22:05;;;;;;;5.80;5.25;;;;;;;;;;5118074;27;20039;-57
2022/07/18 04:24:30;;;;;;;6.68;6.07;;;;;;;;;;5119584;27;20043;-57
2022/07/18 04:26:55;;;;;;;13.98;6.05;;;;;;;;;;5115777;28;20518;-55
2022/07/18 04:29:21;;;;;;;6.60;5.90;;;;;;;;;;5117044;27;20126;-55
2022/07/18 04:31:46;;;;;;;6.85;5.07;;;;;;;;;;5117217;27;20142;-57
2022/07/18 04:34:12;;;;;;;7.68;5.70;;;;;;;;;;5113741;28;20042;-57
2022/07/18 04:36:37;;;;;;;22.80;6.75;;;;;;;;;;5115114;28;20049;-57
2022/07/18 04:39:03;;;;;;;11.07;6.07;;;;;;;;;;5114821;27;20047;-57
2022/07/18 04:41:28;;;;;;;6.38;5.80;;;;;;;;;;5114162;28;20051;-57
2022/07/18 04:43:53;;;;;;;10.57;5.75;;;;;;;;;;5117881;27;20050;-56
2022/07/18 04:46:19;;;;;;;9.23;5.85;;;;;;;;;;5111397;27;20047;-56
2022/07/18 04:48:44;;;;;;;14.73;5.25;;;;;;;;;;5113899;27;20047;-57
2022/07/18 04:51:10;;;;;;;8.18;5.93;;;;;;;;;;5114562;27;20413;-57
2022/07/18 04:53:35;;;;;;;5.78;5.28;;;;;;;;;;5117735;27;20169;-57
2022/07/18 04:56:00;;;;;;;6.43;5.82;;;;;;;;;;5117741;28;20043;-57
2022/07/18 04:58:25;;;;;;;6.05;5.53;;;;;;;;;;5110285;27;20078;-55
2022/07/18 05:00:51;;;;;;;11.55;6.07;;;;;;;;;;5114141;27;20044;-55
2022/07/18 05:03:16;;;;;;;7.07;6.30;;;;;;;;;;5116247;27;20046;-56
2022/07/18 05:05:42;;;;;;;12.63;6.00;;;;;;;;;;5115135;27;20059;-57
2022/07/18 05:08:07;;;;;;;16.88;6.20;;;;;;;;;;5113320;27;20515;-57
2022/07/18 05:10:33;;;;;;;5.93;5.40;;;;;;;;;;5114513;27;20040;-58
2022/07/18 05:12:58;;;;;;;5.85;5.35;;;;;;;;;;5111403;27;20039;-57
2022/07/18 05:15:24;;;;;;;6.93;5.72;;;;;;;;;;5114945;27;20039;-59
2022/07/18 05:17:49;;;;;;;14.10;7.45;;;;;;;;;;5114558;27;20036;-57
2022/07/18 05:20:16;;;;;;;6.93;5.82;;;;;;;;;;5109421;28;20546;-57
2022/07/18 05:22:42;;;;;;;7.65;5.45;;;;;;;;;;5111805;27;20043;-55
2022/07/18 05:25:08;;;;;;;8.75;6.88;;;;;;;;;;5110636;27;20524;-58
2022/07/18 05:27:33;;;;;;;7.88;7.18;;;;;;;;;;5114488;27;20048;-58
2022/07/18 05:29:58;;;;;;;6.60;6.10;;;;;;;;;;5115715;27;20126;-57
2022/07/18 05:32:24;;;;;;;6.35;5.85;;;;;;;;;;5118777;27;20040;-57
2022/07/18 05:34:50;;;;;;;6.78;6.10;;;;;;;;;;5114804;27;20134;-58
2022/07/18 05:37:15;;;;;;;8.77;6.65;;;;;;;;;;5112381;28;20131;-57
2022/07/18 05:39:40;;;;;;;7.22;6.00;;;;;;;;;;5108851;27;20417;-57
2022/07/18 05:42:06;;;;;;;11.23;7.25;;;;;;;;;;5110328;28;20421;-56
2022/07/18 05:44:31;;;;;;;8.25;6.82;;;;;;;;;;5116372;27;20051;-58
2022/07/18 05:46:57;;;;;;;6.13;5.53;;;;;;;;;;5114274;27;20159;-57
2022/07/18 05:49:22;;;;;;;6.85;6.13;;;;;;;;;;5112723;27;20122;-54
2022/07/18 05:51:47;;;;;;;13.38;5.00;;;;;;;;;;5114284;28;20035;-58
2022/07/18 05:54:18;;;;;;;8.05;7.18;;;;;;;;;;5113439;27;20442;-57
2022/07/18 05:56:43;;;;;;;8.35;7.50;;;;;;;;;;5112705;27;20042;-58
2022/07/18 05:59:09;;;;;;;11.38;8.30;;;;;;;;;;5114462;27;20443;-56
2022/07/18 06:01:34;;;;;;;8.43;7.72;;;;;;;;;;5110042;27;20099;-56
2022/07/18 06:03:59;;;;;;;18.45;8.20;;;;;;;;;;5112883;27;20085;-56
2022/07/18 06:06:25;;;;;;;11.02;8.80;;;;;;;;;;5113457;27;20105;-55
2022/07/18 06:08:50;;;;;;;11.20;7.90;;;;;;;;;;5117336;27;20039;-57
2022/07/18 06:11:15;;;;;;;8.50;7.57;;;;;;;;;;5115771;27;20061;-56
2022/07/18 06:13:42;;;;;;;8.55;7.65;;;;;;;;;;5111729;27;20375;-54
2022/07/18 06:16:07;;;;;;;8.77;7.03;;;;;;;;;;5112442;27;20043;-55
2022/07/18 06:18:34;;;;;;;7.72;7.03;;;;;;;;;;5114419;27;20460;-56
2022/07/18 06:21:00;;;;;;;8.07;7.15;;;;;;;;;;5114632;27;20518;-56
2022/07/18 06:23:25;;;;;;;10.07;7.07;;;;;;;;;;5115586;28;20070;-54
2022/07/18 06:25:51;;;;;;;8.02;7.18;;;;;;;;;;5111034;28;20419;-57
2022/07/18 06:28:16;;;;;;;10.50;9.45;;;;;;;;;;5115377;27;20175;-55
2022/07/18 06:30:41;;;;;;;9.82;8.93;;;;;;;;;;5112032;27;20130;-56
2022/07/18 06:33:07;;;;;;;10.93;5.95;;;;;;;;;;5114119;27;20403;-57
2022/07/18 06:35:33;;;;;;;8.80;7.80;;;;;;;;;;5113014;27;20048;-57
2022/07/18 06:37:58;;;;;;;20.90;8.50;;;;;;;;;;5112713;27;20043;-55
2022/07/18 06:40:26;;;;;;;73.57;40.83;;;;;;;;;;5109353;27;20043;-55
2022/07/18 06:42:52;;;;;;;251.02;157.60;;;;;;;;;;5107594;27;20153;-57
2022/07/18 06:45:17;;;;;;;83.20;57.75;;;;;;;;;;5113334;27;20199;-57
2022/07/18 06:47:43;;;;;;;71.75;43.22;;;;;;;;;;5109950;27;20046;-54
2022/07/18 06:50:09;;;;;;;83.07;24.92;;;;;;;;;;5110911;27;20039;-51
2022/07/18 06:52:36;;;;;;;31.15;16.80;;;;;;;;;;5107767;27;20126;-56
2022/07/18 06:55:01;;;;;;;25.75;8.48;;;;;;;;;;5100445;27;20200;-61
2022/07/18 06:57:27;;;;;;;12.93;9.48;;;;;;;;;;5110773;28;20138;-55
2022/07/18 06:59:53;;;;;;;7.95;6.88;;;;;;;;;;5108490;27;20430;-54
2022/07/18 07:02:19;;;;;;;7.15;5.03;;;;;;;;;;5113587;27;20047;-53
2022/07/18 07:04:44;;;;;;;10.25;8.70;;;;;;;;;;5110737;27;20049;-56
2022/07/18 07:07:10;;;;;;;13.43;7.93;;;;;;;;;;5107096;28;20507;-56
2022/07/18 07:09:35;;;;;;;19.70;6.57;;;;;;;;;;5111730;27;20177;-53
2022/07/18 07:12:00;;;;;;;12.48;8.27;;;;;;;;;;5113962;27;20126;-54
2022/07/18 07:14:25;;;;;;;13.95;7.05;;;;;;;;;;5113975;27;20131;-52
2022/07/18 07:16:51;;;;;;;7.13;6.32;;;;;;;;;;5113055;27;20052;-54
2022/07/18 07:19:17;;;;;;;6.88;5.75;;;;;;;;;;5114009;27;20524;-54
2022/07/18 07:21:42;;;;;;;7.80;5.72;;;;;;;;;;5112298;27;20520;-53
2022/07/18 07:24:07;;;;;;;5.72;5.22;;;;;;;;;;5112684;27;20044;-57
2022/07/18 07:26:33;;;;;;;14.02;6.35;;;;;;;;;;5108481;27;20031;-56
2022/07/18 07:28:58;;;;;;;14.60;6.88;;;;;;;;;;5110846;27;20056;-56
2022/07/18 07:31:23;;;;;;;52.78;12.32;;;;;;;;;;5116783;27;20046;-57
2022/07/18 07:33:49;;;;;;;13.07;5.75;;;;;;;;;;5110965;27;20046;-53
2022/07/18 07:36:14;;;;;;;7.97;4.93;;;;;;;;;;5115663;27;20039;-54
2022/07/18 07:38:40;;;;;;;4.80;4.28;;;;;;;;;;5112862;27;20043;-54
2022/07/18 07:41:05;;;;;;;5.57;4.65;;;;;;;;;;5116741;27;20039;-52
2022/07/18 07:43:30;;;;;;;14.70;6.25;;;;;;;;;;5111822;28;20071;-54
2022/07/18 07:45:56;;;;;;;4.95;3.50;;;;;;;;;;5113806;27;20112;-53
2022/07/18 07:48:21;;;;;;;9.50;6.38;;;;;;;;;;5111220;27;20491;-57
2022/07/18 07:50:47;;;;;;;9.77;3.03;;;;;;;;;;5116618;27;20058;-53
2022/07/18 07:53:12;;;;;;;9.32;4.03;;;;;;;;;;5111558;27;20104;-54
2022/07/18 07:55:37;;;;;;;6.70;4.72;;;;;;;;;;5114117;27;20047;-55
2022/07/18 07:58:04;;;;;;;5.97;4.85;;;;;;;;;;5110965;27;20113;-57
2022/07/18 08:00:30;;;;;;;5.32;4.88;;;;;;;;;;5113076;27;20399;-54
2022/07/18 08:02:57;;;;;;;2.58;2.15;;;;;;;;;;5112853;28;20076;-53
2022/07/18 08:05:22;;;;;;;6.50;4.93;;;;;;;;;;5113070;27;20763;-53
2022/07/18 08:07:48;;;;;;;4.82;3.72;;;;;;;;;;5118145;27;20048;-54
2022/07/18 08:10:13;;;;;;;7.38;4.75;;;;;;;;;;5119155;27;20047;-53
2022/07/18 08:12:39;;;;;;;4.30;3.90;;;;;;;;;;5117569;27;20086;-53
2022/07/18 08:15:04;;;;;;;4.60;4.07;;;;;;;;;;5115899;27;20051;-50
2022/07/18 08:17:30;;;;;;;8.30;5.40;;;;;;;;;;5116520;28;20541;-53
2022/07/18 08:19:55;;;;;;;5.00;3.10;;;;;;;;;;5111468;28;20035;-55
2022/07/18 08:22:20;;;;;;;10.75;4.57;;;;;;;;;;5115316;27;20043;-55
2022/07/18 08:24:46;;;;;;;8.50;5.38;;;;;;;;;;5118203;27;20112;-56
2022/07/18 08:27:11;;;;;;;8.05;5.10;;;;;;;;;;5117592;27;20087;-56
2022/07/18 08:29:36;;;;;;;6.43;5.75;;;;;;;;;;5114051;27;20154;-55
2022/07/18 08:32:02;;;;;;;7.80;5.13;;;;;;;;;;5114330;28;20055;-56
2022/07/18 08:34:28;;;;;;;4.32;2.88;;;;;;;;;;5112919;27;20447;-55
2022/07/18 08:36:53;;;;;;;5.90;5.30;;;;;;;;;;5114650;27;20065;-54
2022/07/18 08:39:19;;;;;;;5.68;4.72;;;;;;;;;;5115346;27;20120;-55
2022/07/18 08:41:47;;;;;;;7.90;5.35;;;;;;;;;;5113664;27;20529;-54
2022/07/18 08:44:13;;;;;;;5.10;4.60;;;;;;;;;;5113436;27;20031;-56
2022/07/18 08:46:39;;;;;;;6.50;5.00;;;;;;;;;;5113337;27;20051;-51
2022/07/18 08:49:05;;;;;;;5.30;3.28;;;;;;;;;;5113328;27;20050;-53
2022/07/18 08:51:30;;;;;;;6.88;6.15;;;;;;;;;;5114521;27;20052;-52
2022/07/18 08:53:55;;;;;;;6.88;5.53;;;;;;;;;;5118915;27;20050;-52
2022/07/18 08:56:21;;;;;;;4.57;1.92;;;;;;;;;;5112710;27;20046;-49
2022/07/18 08:58:46;;;;;;;5.13;3.42;;;;;;;;;;5112749;27;20039;-53
2022/07/18 09:01:12;;;;;;;6.07;5.03;;;;;;;;;;5117178;27;20345;-56
2022/07/18 09:03:37;;;;;;;4.78;3.75;;;;;;;;;;5117183;27;20847;-56
2022/07/18 09:06:03;;;;;;;4.13;3.58;;;;;;;;;;5114701;27;20074;-55
2022/07/18 09:08:28;;;;;;;4.32;3.90;;;;;;;;;;5111257;27;20043;-54
2022/07/18 09:10:54;;;;;;;5.53;4.90;;;;;;;;;;5107815;27;20040;-54
2022/07/18 09:13:24;;;;;;;8.02;3.50;;;;;;;;;;5113420;28;20085;-54
2022/07/18 09:16:00;;;;;;;9.23;4.20;;;;;;;;;;5111711;27;20095;-50
2022/07/18 09:18:35;;;;;;;5.53;5.03;;;;;;;;;;5111075;27;20044;-55
2022/07/18 09:21:08;;;;;;;6.38;4.47;;;;;;;;;;5116297;27;20628;-54
2022/07/18 09:23:34;;;;;;;11.23;3.72;;;;;;;;;;5110797;27;21010;-53
2022/07/18 09:25:59;;;;;;;7.05;3.92;;;;;;;;;;5116433;27;20092;-53
2022/07/18 09:28:26;;;;;;;3.97;3.40;;;;;;;;;;5114369;27;20085;-54
2022/07/18 09:30:51;;;;;;;6.55;3.28;;;;;;;;;;5112640;27;20036;-53
2022/07/18 09:33:17;;;;;;;4.10;3.70;;;;;;;;;;5110833;27;20044;-54
2022/07/18 09:35:42;;;;;;;5.38;2.95;;;;;;;;;;5109175;27;20455;-55
2022/07/18 09:38:09;;;;;;;4.07;3.25;;;;;;;;;;5112852;28;20701;-55
2022/07/18 09:40:36;;;;;;;7.45;3.53;;;;;;;;;;5116058;27;20158;-56
2022/07/18 09:43:02;;;;;;;7.15;2.60;;;;;;;;;;5116022;27;20066;-56
2022/07/18 09:45:29;;;;;;;5.13;2.90;;;;;;;;;;5116277;27;20051;-56
2022/07/18 09:47:59;;;;;;;6.60;2.13;;;;;;;;;;5117891;27;20067;-54
2022/07/18 09:50:29;;;;;;;3.40;2.90;;;;;;;;;;5112556;27;20067;-53
2022/07/18 09:53:00;;;;;;;2.33;2.05;;;;;;;;;;5110758;27;20064;-52
2022/07/18 09:55:25;;;;;;;8.50;2.88;;;;;;;;;;5114409;27;20046;-51
2022/07/18 09:57:58;;;;;;;4.05;2.33;;;;;;;;;;5117024;27;20055;-53
2022/07/18 10:00:25;;;;;;;4.55;4.03;;;;;;;;;;5106749;28;20121;-51
2022/07/18 10:02:50;;;;;;;19.73;5.72;;;;;;;;;;5110223;27;20422;-54
2022/07/18 10:05:16;;;;;;;2.97;2.65;;;;;;;;;;5089157;28;20052;-52
2022/07/18 10:07:41;;;;;;;7.28;2.63;;;;;;;;;;5115986;27;20590;-53
2022/07/18 10:10:07;;;;;;;5.07;3.38;;;;;;;;;;5113971;27;20071;-50
2022/07/18 10:12:32;;;;;;;3.70;3.40;;;;;;;;;;5114874;28;20051;-55
2022/07/18 10:14:58;;;;;;;5.75;3.25;;;;;;;;;;5113003;27;20127;-52
2022/07/18 10:17:23;;;;;;;3.67;2.85;;;;;;;;;;5094757;27;20422;-51
2022/07/18 10:19:49;;;;;;;10.60;4.20;;;;;;;;;;5117492;27;20089;-49
2022/07/18 10:22:14;;;;;;;6.40;3.83;;;;;;;;;;5115839;27;20118;-54
2022/07/18 10:24:40;;;;;;;2.85;2.55;;;;;;;;;;5115115;27;20055;-52
2022/07/18 10:27:11;;;;;;;3.97;3.47;;;;;;;;;;5111728;27;20099;-51
2022/07/18 10:29:37;;;;;;;13.98;4.82;;;;;;;;;;5112307;27;20046;-53
2022/07/18 10:32:03;;;;;;;3.63;2.88;;;;;;;;;;5113062;27;20063;-55
2022/07/18 10:34:32;;;;;;;5.68;4.57;;;;;;;;;;5112617;27;20043;-54
2022/07/18 10:37:01;;;;;;;4.40;4.00;;;;;;;;;;5112841;27;20047;-55
2022/07/18 10:39:32;;;;;;;5.60;3.70;;;;;;;;;;5105797;27;20044;-54
2022/07/18 10:41:58;;;;;;;5.90;3.08;;;;;;;;;;5112143;27;20047;-53
2022/07/18 10:44:23;;;;;;;5.05;3.20;;;;;;;;;;5110627;28;20047;-56
2022/07/18 10:47:12;;;;;;;4.45;3.60;;;;;;;;;;5110436;27;20548;-54
2022/07/18 10:49:49;;;;;;;3.25;2.90;;;;;;;;;;5095198;27;20044;-54
2022/07/18 10:52:32;;;;;;;5.70;3.92;;;;;;;;;;5110629;27;20043;-51
2022/07/18 10:55:08;;;;;;;4.20;3.20;;;;;;;;;;5113808;28;20040;-53
2022/07/18 10:58:06;;;;;;;5.43;3.47;;;;;;;;;;5112632;27;20043;-54
2022/07/18 11:00:32;;;;;;;5.22;4.72;;;;;;;;;;5093452;28;20460;-53
2022/07/18 11:03:00;;;;;;;6.30;4.10;;;;;;;;;;5112406;27;20048;-51
2022/07/18 11:05:25;;;;;;;4.32;2.83;;;;;;;;;;5109893;28;20031;-54
2022/07/18 11:08:03;;;;;;;8.00;4.45;;;;;;;;;;5113920;27;20539;-55
2022/07/18 11:13:34;;;;;;;3.47;2.65;;;;;;;;;;5113975;27;20043;-53
2022/07/18 11:16:10;;;;;;;3.78;3.33;;;;;;;;;;5114124;27;20050;-54
2022/07/18 11:18:44;;;;;;;3.58;2.30;;;;;;;;;;5115991;27;20520;-54
2022/07/18 11:21:25;;;;;;;8.45;3.80;;;;;;;;;;5115195;28;20039;-54
2022/07/18 11:23:51;;;;;;;11.18;3.83;;;;;;;;;;5116030;27;20071;-54
2022/07/18 11:26:18;;;;;;;6.32;4.60;;;;;;;;;;5114004;27;20058;-54
2022/07/18 11:28:45;;;;;;;5.85;4.68;;;;;;;;;;5114868;27;20047;-53
2022/07/18 11:31:11;;;;;;;7.13;5.20;;;;;;;;;;5113837;28;20072;-55
2022/07/18 11:33:38;;;;;;;3.80;3.35;;;;;;;;;;5115793;27;20041;-56
2022/07/18 11:36:03;;;;;;;8.75;4.07;;;;;;;;;;5113979;27;20044;-55
2022/07/18 11:38:28;;;;;;;4.80;3.43;;;;;;;;;;5114151;28;20567;-55
2022/07/18 11:40:54;;;;;;;3.25;2.75;;;;;;;;;;5110602;27;20275;-55
2022/07/18 11:43:23;;;;;;;7.50;5.05;;;;;;;;;;5111338;28;20486;-55
2022/07/18 11:45:59;;;;;;;4.25;3.47;;;;;;;;;;5115590;28;20047;-53
2022/07/18 11:48:24;;;;;;;5.65;3.08;;;;;;;;;;5115001;27;20044;-54
2022/07/18 11:50:49;;;;;;;3.80;3.17;;;;;;;;;;5118284;27;20126;-52
2022/07/18 11:53:15;;;;;;;5.30;3.50;;;;;;;;;;5114554;28;20127;-52
2022/07/18 11:55:40;;;;;;;3.75;2.75;;;;;;;;;;5115026;27;20054;-54
2022/07/18 11:58:09;;;;;;;3.88;3.17;;;;;;;;;;5119618;27;20126;-52
2022/07/18 12:00:35;;;;;;;12.27;2.93;;;;;;;;;;5118827;27;20522;-51
2022/07/18 12:03:07;;;;;;;6.80;3.13;;;;;;;;;;5113809;27;20043;-55
2022/07/18 12:05:34;;;;;;;10.43;3.10;;;;;;;;;;5115283;28;20130;-53
2022/07/18 12:08:00;;;;;;;3.30;2.85;;;;;;;;;;5116515;28;20150;-55
2022/07/18 12:10:26;;;;;;;4.15;2.47;;;;;;;;;;5116310;27;20636;-52
2022/07/18 12:12:51;;;;;;;4.88;2.92;;;;;;;;;;5117116;27;20655;-54
2022/07/18 12:15:16;;;;;;;13.93;7.35;;;;;;;;;;5119323;27;20051;-55
2022/07/18 12:17:45;;;;;;;19.10;11.38;;;;;;;;;;5116856;28;20043;-53
2022/07/18 12:20:18;;;;;;;4.37;2.57;;;;;;;;;;5114356;27;20054;-53
2022/07/18 12:23:02;;;;;;;3.13;2.60;;;;;;;;;;5115908;27;20485;-51
2022/07/18 12:25:35;;;;;;;4.15;2.33;;;;;;;;;;5114259;28;20047;-50
2022/07/18 12:28:11;;;;;;;3.30;2.25;;;;;;;;;;5116572;28;20052;-53
2022/07/18 12:30:37;;;;;;;2.40;1.95;;;;;;;;;;5111106;28;20047;-51
2022/07/18 12:33:07;;;;;;;7.95;3.65;;;;;;;;;;5116309;27;20035;-55
2022/07/18 12:35:37;;;;;;;3.50;2.67;;;;;;;;;;5108622;28;20140;-51
2022/07/18 12:38:03;;;;;;;3.85;2.60;;;;;;;;;;5112059;28;20493;-50
2022/07/18 12:40:38;;;;;;;5.72;3.17;;;;;;;;;;5111543;28;20144;-52
2022/07/18 12:43:05;;;;;;;2.58;2.38;;;;;;;;;;5108387;27;20176;-50
2022/07/18 12:45:31;;;;;;;7.97;3.33;;;;;;;;;;5114897;27;20054;-53
2022/07/18 12:47:56;;;;;;;3.10;2.80;;;;;;;;;;5111452;28;20036;-55
2022/07/18 12:50:21;;;;;;;4.75;3.47;;;;;;;;;;5116589;27;20047;-51
2022/07/18 12:52:47;;;;;;;7.25;3.67;;;;;;;;;;5114676;27;20036;-51
2022/07/18 12:55:12;;;;;;;3.58;2.78;;;;;;;;;;5110544;28;20043;-52
2022/07/18 12:57:37;;;;;;;3.05;2.65;;;;;;;;;;5115161;28;20043;-54
2022/07/18 13:00:03;;;;;;;3.80;2.92;;;;;;;;;;5115458;27;20055;-53
2022/07/18 13:02:29;;;;;;;8.88;4.93;;;;;;;;;;5117016;27;20202;-53
2022/07/18 13:04:54;;;;;;;3.58;3.10;;;;;;;;;;5115571;27;20035;-51
2022/07/18 13:07:19;;;;;;;5.50;2.55;;;;;;;;;;5117843;27;20066;-51
2022/07/18 13:09:44;;;;;;;5.55;3.22;;;;;;;;;;5110110;27;20047;-54
2022/07/18 13:12:10;;;;;;;3.55;3.08;;;;;;;;;;5113608;27;20039;-52
2022/07/18 13:14:35;;;;;;;3.00;2.70;;;;;;;;;;5115513;27;20038;-53
2022/07/18 13:17:00;;;;;;;5.97;3.97;;;;;;;;;;5110688;28;20043;-49
2022/07/18 13:19:26;;;;;;;4.57;3.72;;;;;;;;;;5112409;27;20620;-50
2022/07/18 13:21:51;;;;;;;3.05;1.95;;;;;;;;;;5112810;27;20140;-51
2022/07/18 13:24:17;;;;;;;12.20;4.38;;;;;;;;;;5114538;27;20039;-52
2022/07/18 13:26:42;;;;;;;4.90;3.85;;;;;;;;;;5114743;27;20059;-50
2022/07/18 13:29:07;;;;;;;3.85;3.53;;;;;;;;;;5111796;28;20104;-51
2022/07/18 13:31:33;;;;;;;5.63;4.13;;;;;;;;;;5114420;27;20078;-53
2022/07/18 13:33:58;;;;;;;3.22;2.40;;;;;;;;;;5114951;27;20065;-54
2022/07/18 13:36:23;;;;;;;3.58;2.67;;;;;;;;;;5111919;27;20046;-52
2022/07/18 13:38:49;;;;;;;5.47;3.17;;;;;;;;;;5111906;27;20104;-53
2022/07/18 13:41:14;;;;;;;6.95;3.92;;;;;;;;;;5119135;27;20096;-53
2022/07/18 13:43:40;;;;;;;13.50;3.30;;;;;;;;;;5112051;28;20051;-53
2022/07/18 13:46:06;;;;;;;5.20;2.63;;;;;;;;;;5114060;27;20134;-49
2022/07/18 13:48:31;;;;;;;5.18;4.32;;;;;;;;;;5110811;27;20506;-49
2022/07/18 13:50:57;;;;;;;7.63;3.85;;;;;;;;;;5113309;27;20046;-50
2022/07/18 13:53:22;;;;;;;3.58;2.35;;;;;;;;;;5115808;27;20174;-55
2022/07/18 13:55:47;;;;;;;5.03;3.33;;;;;;;;;;5114213;27;20047;-51
2022/07/18 13:58:12;;;;;;;5.55;3.70;;;;;;;;;;5111073;27;20122;-53
2022/07/18 14:00:38;;;;;;;3.50;2.47;;;;;;;;;;5112858;27;20507;-54
2022/07/18 14:03:03;;;;;;;5.68;3.53;;;;;;;;;;5111837;27;20999;-53
2022/07/18 14:05:29;;;;;;;4.68;3.08;;;;;;;;;;5112939;27;20116;-50
2022/07/18 14:07:54;;;;;;;3.33;2.63;;;;;;;;;;5117662;27;20134;-49
2022/07/18 14:10:20;;;;;;;3.10;2.78;;;;;;;;;;5112134;27;20121;-51
2022/07/18 14:12:46;;;;;;;3.47;2.67;;;;;;;;;;5111377;27;20122;-51
2022/07/18 14:15:11;;;;;;;5.95;2.65;;;;;;;;;;5113508;27;20047;-53
2022/07/18 14:17:37;;;;;;;4.07;2.83;;;;;;;;;;5115286;27;20867;-54
2022/07/18 14:20:02;;;;;;;3.65;3.15;;;;;;;;;;5116255;27;20395;-52
2022/07/18 14:22:28;;;;;;;4.30;3.13;;;;;;;;;;5111098;28;20047;-53
2022/07/18 14:24:53;;;;;;;5.85;3.55;;;;;;;;;;5113791;28;20143;-51
2022/07/18 14:27:18;;;;;;;4.10;3.33;;;;;;;;;;5111638;27;20055;-53
2022/07/18 14:29:44;;;;;;;5.22;4.70;;;;;;;;;;5114135;27;20476;-48
2022/07/18 14:32:09;;;;;;;3.85;3.10;;;;;;;;;;5113685;27;20415;-51
2022/07/18 14:34:34;;;;;;;8.63;3.10;;;;;;;;;;5110982;27;20082;-51
2022/07/18 14:37:00;;;;;;;5.25;3.67;;;;;;;;;;5115075;28;20035;-51
2022/07/18 14:39:25;;;;;;;5.05;3.22;;;;;;;;;;5113877;27;20056;-54
2022/07/18 14:41:50;;;;;;;4.35;3.08;;;;;;;;;;5116271;27;20156;-52